Williston Park, New York
Current Conditions -  °F | °C
As of 10:51 PM on Tuesday 27 Jan 2015 (Local Time) from KJFK Reporting Station
Overcast Overcast  
Wind Chill: -14°   Ceiling: 14000
Heat Index: -6°   Visibility: 10mi
Dew Point: -13°   Wind: 22mph
Humidity: 55%   Direction: 310°NW
Pressure: 29.83"   Gusts: NA
Location:  40.76°N, 73.64°W
Report Text: KJFK 280351Z 31019KT 10SM FEW039 OVC140 M06/M13 A2983 RMK AO2 SLP102 T10561133 $
Loading
Personal Weather Stations






























Interactive Weather Map New forecast layout! Learn more

10-Day Weather Forecast

Advertisements
Track Severe Weather on mobile